Terminal Aerodrome Forecast
Issued by NWS

Home | Current Version | Previous Version | Text Only | Print | Product List | Glossary On
Versions: 1 2 3 4 5 6 7 8 9 10 11 12 13 14
000
FTUS41 KCLE 032300
TAFFDY
TAF
KFDY 032320Z 0400/0424 20010KT P6SM SCT080 BKN250
     FM041500 21014G20KT P6SM VCSH BKN045 BKN120
     FM042000 24014G22KT 5SM -SHRA VCTS OVC025CB=

USA.gov is the U.S. government's official web portal to all federal, state and local government web resources and services.